createdAt,value
2023-09-21T00:02:45.923Z,8.18
2023-09-21T00:12:49.479Z,4.00
2023-09-21T00:22:54.297Z,6.68
2023-09-21T00:32:57.101Z,7.18
2023-09-21T00:43:02.300Z,3.78
2023-09-21T00:53:06.888Z,5.63
2023-09-21T01:03:13.305Z,5.88
2023-09-21T01:13:17.214Z,4.28
2023-09-21T01:23:23.103Z,4.50
2023-09-21T01:33:27.614Z,3.67
2023-09-21T01:43:30.493Z,5.65
2023-09-21T01:53:34.641Z,3.38
2023-09-21T02:03:38.030Z,4.30
2023-09-21T02:13:42.407Z,3.85
2023-09-21T02:23:45.138Z,3.25
2023-09-21T02:33:49.829Z,3.38
2023-09-21T02:43:55.074Z,3.92
2023-09-21T02:54:01.074Z,3.88
2023-09-21T03:04:05.103Z,4.53
2023-09-21T03:14:09.853Z,2.95
2023-09-21T03:24:13.135Z,4.43
2023-09-21T03:34:17.292Z,4.07
2023-09-21T03:44:20.194Z,3.95
2023-09-21T03:54:24.244Z,3.60
2023-09-21T04:04:27.166Z,3.35
2023-09-21T04:14:31.801Z,3.50
2023-09-21T04:24:35.381Z,4.53
2023-09-21T04:34:39.484Z,4.97
2023-09-21T04:44:42.226Z,4.40
2023-09-21T04:54:51.052Z,5.45
2023-09-21T05:04:53.826Z,2.90
2023-09-21T05:14:58.633Z,3.28
2023-09-21T05:25:01.705Z,4.90
2023-09-21T05:35:09.190Z,5.32
2023-09-21T05:45:12.530Z,3.20
2023-09-21T05:55:17.892Z,3.97
2023-09-21T06:05:20.797Z,3.70
2023-09-21T06:15:24.895Z,3.28
2023-09-21T06:25:30.453Z,3.00
2023-09-21T06:35:36.433Z,7.32
2023-09-21T06:45:39.149Z,3.33
2023-09-21T06:55:43.213Z,3.20
2023-09-21T07:05:49.861Z,3.45
2023-09-21T07:15:56.329Z,5.05
2023-09-21T07:25:59.674Z,3.50
2023-09-21T07:36:04.250Z,9.85
2023-09-21T07:46:07.217Z,3.88
2023-09-21T07:56:13.610Z,5.75
2023-09-21T08:06:16.939Z,4.50
2023-09-21T08:16:21.084Z,5.47
2023-09-21T08:26:23.865Z,4.38
2023-09-21T08:36:29.770Z,6.75
2023-09-21T08:46:34.344Z,3.53
2023-09-21T08:56:38.703Z,3.05
2023-09-21T09:06:41.422Z,4.45
2023-09-21T09:16:47.285Z,4.15
2023-09-21T09:26:51.008Z,4.60
2023-09-21T09:36:56.210Z,4.18
2023-09-21T09:47:02.719Z,5.53
2023-09-21T09:57:12.248Z,4.47
2023-09-21T10:07:18.077Z,7.25
2023-09-21T10:17:29.048Z,3.58
2023-09-21T10:27:36.973Z,3.30
2023-09-21T10:37:41.241Z,4.90
2023-09-21T10:47:50.604Z,5.28
2023-09-21T10:57:59.633Z,4.10
2023-09-21T11:08:03.857Z,3.00
2023-09-21T11:18:08.193Z,5.00
2023-09-21T11:28:11.517Z,3.88
2023-09-21T11:38:17.539Z,5.32
2023-09-21T11:48:23.030Z,7.75
2023-09-21T11:58:32.502Z,7.95
2023-09-21T12:08:36.394Z,5.38
2023-09-21T12:18:40.802Z,9.52
2023-09-21T12:28:44.646Z,5.53
2023-09-21T12:38:48.839Z,7.45
2023-09-21T12:48:51.770Z,5.38
2023-09-21T12:58:56.969Z,6.80
2023-09-21T13:09:00.719Z,8.55
2023-09-21T13:19:04.981Z,6.07
2023-09-21T13:29:08.670Z,12.82
2023-09-21T13:39:12.802Z,5.90
2023-09-21T13:49:17.987Z,7.82
2023-09-21T13:59:24.032Z,4.55
2023-09-21T14:09:26.864Z,7.68
2023-09-21T14:19:31.562Z,9.13
2023-09-21T14:29:34.253Z,6.18
2023-09-21T14:39:38.397Z,6.55
2023-09-21T14:49:41.308Z,5.38
2023-09-21T14:59:45.327Z,7.32
2023-09-21T15:09:48.049Z,5.75
2023-09-21T15:19:52.726Z,7.43
2023-09-21T15:29:55.463Z,5.68
2023-09-21T15:39:59.941Z,4.00
2023-09-21T15:50:03.895Z,4.90
2023-09-21T16:00:12.076Z,4.07
2023-09-21T16:10:15.014Z,7.78
2023-09-21T16:20:19.219Z,6.38
2023-09-21T16:30:22.076Z,5.22
2023-09-21T16:40:27.520Z,6.60
2023-09-21T16:50:30.380Z,5.80
2023-09-21T17:00:35.336Z,7.25
2023-09-21T17:10:38.254Z,8.13
2023-09-21T17:20:42.422Z,9.63
2023-09-21T17:30:45.172Z,6.75
2023-09-21T17:40:49.296Z,7.80
2023-09-21T17:51:05.710Z,6.88
2023-09-21T18:01:12.338Z,8.30
2023-09-21T18:11:15.597Z,8.20
2023-09-21T18:21:19.824Z,10.88
2023-09-21T18:31:24.127Z,8.80
2023-09-21T18:41:28.628Z,10.63
2023-09-21T18:51:31.370Z,10.45
2023-09-21T19:01:36.336Z,11.60
2023-09-21T19:11:39.190Z,11.80
2023-09-21T19:21:43.796Z,14.43
2023-09-21T19:31:47.285Z,17.02
2023-09-21T19:41:51.559Z,15.73
2023-09-21T19:51:55.720Z,18.88
2023-09-21T20:01:59.944Z,16.00
2023-09-21T20:12:02.654Z,19.13
2023-09-21T20:22:06.763Z,12.52
2023-09-21T20:32:09.675Z,13.07
2023-09-21T20:42:13.947Z,12.60
2023-09-21T20:52:16.699Z,11.95
2023-09-21T21:02:21.093Z,12.45
2023-09-21T21:12:23.912Z,6.63
2023-09-21T21:22:28.134Z,5.45
2023-09-21T21:32:30.970Z,6.22
2023-09-21T21:42:35.121Z,6.03
2023-09-21T21:52:37.877Z,5.45
2023-09-21T22:02:41.937Z,7.88
2023-09-21T22:12:44.752Z,7.47
2023-09-21T22:22:51.157Z,9.55
2023-09-21T22:32:54.110Z,5.55
2023-09-21T22:42:58.515Z,9.15
2023-09-21T22:53:01.220Z,5.93
2023-09-21T23:03:05.985Z,4.93
2023-09-21T23:13:10.420Z,5.20
2023-09-21T23:23:15.141Z,6.00
2023-09-21T23:33:17.879Z,7.88
2023-09-21T23:43:21.925Z,7.13
2023-09-21T23:53:25.727Z,11.60
